| Date | Time | Temp. (oF) | Dew Point (oF) | Rel. Hum. (%) | Press. (in.) | Wind Dir. | Wind Speed (mph) | Hourly Rainfall (in.) |
|
|---|---|---|---|---|---|---|---|---|---|
| 1 | 04/18 | 00:00 | 42 | 30 | 63 | 29.94 | NW | 3 | 0.00 |
| 2 | 04/17 | 23:00 | 44 | 30 | 60 | 29.94 | WNW | 1 | 0.00 |
| 3 | 04/17 | 22:00 | 46 | 32 | 58 | 29.95 | NNW | 5 | 0.00 |
| 4 | 04/17 | 21:00 | 46 | 31 | 57 | 29.95 | WNW | 4 | 0.00 |
| 5 | 04/17 | 20:00 | 47 | 32 | 56 | 29.92 | NNW | 3 | 0.00 |
| 6 | 04/17 | 19:00 | 48 | 31 | 53 | 29.90 | NW | 12 | 0.00 |
| 7 | 04/17 | 18:00 | 49 | 31 | 51 | 29.87 | NNW | 6 | 0.00 |
| 8 | 04/17 | 17:00 | 49 | 31 | 51 | 29.86 | N | 13 | 0.00 |
| 9 | 04/17 | 16:00 | 49 | 32 | 53 | 29.85 | WNW | 10 | 0.00 |
| 10 | 04/17 | 15:00 | 51 | 35 | 55 | 29.83 | WNW | 6 | 0.00 |
| 11 | 04/17 | 14:00 | 52 | 36 | 56 | 29.81 | NW | 23 | 0.00 |
| 12 | 04/17 | 13:00 | 53 | 36 | 53 | 29.80 | WNW | 9 | 0.00 |
| 13 | 04/17 | 12:00 | 54 | 36 | 52 | 29.78 | N | 7 | 0.00 |
| 14 | 04/17 | 11:00 | 53 | 37 | 55 | 29.78 | NW | 10 | 0.00 |
| 15 | 04/17 | 10:00 | 55 | 39 | 55 | 29.76 | NW | 12 | 0.00 |
| 16 | 04/17 | 09:00 | 54 | 40 | 61 | 29.76 | N | 11 | 0.00 |
| 17 | 04/17 | 08:00 | 53 | 42 | 68 | 29.76 | NW | 4 | 0.00 |
| 18 | 04/17 | 07:00 | 53 | 43 | 69 | 29.73 | NW | 4 | 0.00 |
| 19 | 04/17 | 06:00 | 54 | 47 | 79 | 29.71 | WNW | 2 | 0.00 |
| 20 | 04/17 | 05:00 | 55 | 50 | 84 | 29.70 | WNW | 7 | 0.00 |
| 21 | 04/17 | 04:00 | 55 | 50 | 86 | 29.69 | WNW | 4 | 0.00 |
| 22 | 04/17 | 03:00 | 56 | 52 | 87 | 29.69 | W | 4 | 0.00 |
| 23 | 04/17 | 02:00 | 57 | 53 | 88 | 29.70 | NW | 3 | 0.00 |
| 24 | 04/17 | 01:00 | 59 | 56 | 91 | 29.71 | WNW | 4 | 0.01 |